sensor_id;sensor_type;location;lat;lon;timestamp;P1;durP1;ratioP1;P2;durP2;ratioP2
7989;SDS011;4040;42.848;23.034;2022-07-17T00:01:58;7.63;;;3.08;;
7989;SDS011;4040;42.848;23.034;2022-07-17T00:07:47;4.03;;;3.40;;
7989;SDS011;4040;42.848;23.034;2022-07-17T00:13:38;6.15;;;3.72;;
7989;SDS011;4040;42.848;23.034;2022-07-17T00:19:27;5.88;;;3.45;;
7989;SDS011;4040;42.848;23.034;2022-07-17T00:25:15;5.05;;;3.03;;
7989;SDS011;4040;42.848;23.034;2022-07-17T00:31:06;3.50;;;3.20;;
7989;SDS011;4040;42.848;23.034;2022-07-17T00:36:54;3.72;;;3.25;;
7989;SDS011;4040;42.848;23.034;2022-07-17T00:42:43;5.00;;;3.42;;
7989;SDS011;4040;42.848;23.034;2022-07-17T00:48:33;3.95;;;3.20;;
7989;SDS011;4040;42.848;23.034;2022-07-17T00:54:22;3.75;;;3.20;;
7989;SDS011;4040;42.848;23.034;2022-07-17T01:00:11;5.45;;;3.50;;
7989;SDS011;4040;42.848;23.034;2022-07-17T01:10:14;4.78;;;2.97;;
7989;SDS011;4040;42.848;23.034;2022-07-17T01:16:04;3.30;;;3.00;;
7989;SDS011;4040;42.848;23.034;2022-07-17T01:21:55;4.15;;;3.00;;
7989;SDS011;4040;42.848;23.034;2022-07-17T01:27:44;3.38;;;3.08;;
7989;SDS011;4040;42.848;23.034;2022-07-17T01:33:32;3.85;;;3.50;;
7989;SDS011;4040;42.848;23.034;2022-07-17T01:39:23;4.10;;;2.92;;
7989;SDS011;4040;42.848;23.034;2022-07-17T01:45:25;5.07;;;3.15;;
7989;SDS011;4040;42.848;23.034;2022-07-17T01:51:14;4.32;;;3.35;;
7989;SDS011;4040;42.848;23.034;2022-07-17T01:57:05;5.95;;;3.13;;
7989;SDS011;4040;42.848;23.034;2022-07-17T02:02:54;3.92;;;3.22;;
7989;SDS011;4040;42.848;23.034;2022-07-17T02:13:06;5.93;;;3.33;;
7989;SDS011;4040;42.848;23.034;2022-07-17T02:18:54;3.08;;;2.78;;
7989;SDS011;4040;42.848;23.034;2022-07-17T02:24:43;3.80;;;3.38;;
7989;SDS011;4040;42.848;23.034;2022-07-17T02:30:34;3.55;;;3.25;;
7989;SDS011;4040;42.848;23.034;2022-07-17T02:36:22;3.58;;;3.25;;
7989;SDS011;4040;42.848;23.034;2022-07-17T02:42:11;4.88;;;3.72;;
7989;SDS011;4040;42.848;23.034;2022-07-17T02:48:01;4.05;;;3.65;;
7989;SDS011;4040;42.848;23.034;2022-07-17T02:53:50;8.93;;;4.03;;
7989;SDS011;4040;42.848;23.034;2022-07-17T02:59:38;4.05;;;3.50;;
7989;SDS011;4040;42.848;23.034;2022-07-17T03:05:29;4.90;;;3.75;;
7989;SDS011;4040;42.848;23.034;2022-07-17T03:15:39;4.35;;;3.95;;
7989;SDS011;4040;42.848;23.034;2022-07-17T03:21:30;6.25;;;4.47;;
7989;SDS011;4040;42.848;23.034;2022-07-17T03:27:18;3.80;;;3.50;;
7989;SDS011;4040;42.848;23.034;2022-07-17T03:33:07;8.45;;;4.18;;
7989;SDS011;4040;42.848;23.034;2022-07-17T03:38:57;5.65;;;3.65;;
7989;SDS011;4040;42.848;23.034;2022-07-17T03:44:45;6.32;;;3.90;;
7989;SDS011;4040;42.848;23.034;2022-07-17T03:50:34;6.78;;;3.88;;
7989;SDS011;4040;42.848;23.034;2022-07-17T03:56:25;4.38;;;3.97;;
7989;SDS011;4040;42.848;23.034;2022-07-17T04:02:13;6.57;;;3.65;;
7989;SDS011;4040;42.848;23.034;2022-07-17T04:08:02;4.25;;;3.85;;
7989;SDS011;4040;42.848;23.034;2022-07-17T04:18:14;5.70;;;3.92;;
7989;SDS011;4040;42.848;23.034;2022-07-17T04:24:03;7.53;;;4.15;;
7989;SDS011;4040;42.848;23.034;2022-07-17T04:29:52;6.70;;;3.42;;
7989;SDS011;4040;42.848;23.034;2022-07-17T04:35:43;8.23;;;3.58;;
7989;SDS011;4040;42.848;23.034;2022-07-17T04:41:32;4.43;;;3.70;;
7989;SDS011;4040;42.848;23.034;2022-07-17T04:47:21;4.07;;;3.10;;
7989;SDS011;4040;42.848;23.034;2022-07-17T04:53:11;3.40;;;3.10;;
7989;SDS011;4040;42.848;23.034;2022-07-17T04:58:59;3.70;;;3.40;;
7989;SDS011;4040;42.848;23.034;2022-07-17T05:04:48;3.58;;;3.03;;
7989;SDS011;4040;42.848;23.034;2022-07-17T05:10:38;4.28;;;3.72;;
7989;SDS011;4040;42.848;23.034;2022-07-17T05:20:49;3.22;;;2.75;;
7989;SDS011;4040;42.848;23.034;2022-07-17T05:26:39;5.55;;;2.45;;
7989;SDS011;4040;42.848;23.034;2022-07-17T05:32:28;5.95;;;2.60;;
7989;SDS011;4040;42.848;23.034;2022-07-17T05:38:16;4.07;;;2.90;;
7989;SDS011;4040;42.848;23.034;2022-07-17T05:44:07;4.63;;;2.75;;
7989;SDS011;4040;42.848;23.034;2022-07-17T05:49:56;3.67;;;2.92;;
7989;SDS011;4040;42.848;23.034;2022-07-17T05:55:44;3.92;;;2.60;;
7989;SDS011;4040;42.848;23.034;2022-07-17T06:01:35;3.58;;;3.00;;
7989;SDS011;4040;42.848;23.034;2022-07-17T06:07:23;4.40;;;2.30;;
7989;SDS011;4040;42.848;23.034;2022-07-17T06:13:12;7.15;;;2.45;;
7989;SDS011;4040;42.848;23.034;2022-07-17T06:23:24;4.97;;;2.63;;
7989;SDS011;4040;42.848;23.034;2022-07-17T06:29:13;10.52;;;3.13;;
7989;SDS011;4040;42.848;23.034;2022-07-17T06:35:02;5.15;;;2.42;;
7989;SDS011;4040;42.848;23.034;2022-07-17T06:40:52;3.60;;;2.20;;
7989;SDS011;4040;42.848;23.034;2022-07-17T06:46:41;6.70;;;2.70;;
7989;SDS011;4040;42.848;23.034;2022-07-17T06:52:29;4.47;;;2.25;;
7989;SDS011;4040;42.848;23.034;2022-07-17T06:58:19;5.15;;;2.35;;
7989;SDS011;4040;42.848;23.034;2022-07-17T07:04:08;4.88;;;2.45;;
7989;SDS011;4040;42.848;23.034;2022-07-17T07:09:57;4.03;;;2.55;;
7989;SDS011;4040;42.848;23.034;2022-07-17T07:15:47;4.47;;;2.72;;
7989;SDS011;4040;42.848;23.034;2022-07-17T07:25:58;5.55;;;2.72;;
7989;SDS011;4040;42.848;23.034;2022-07-17T07:31:48;5.00;;;2.50;;
7989;SDS011;4040;42.848;23.034;2022-07-17T07:37:37;6.18;;;2.28;;
7989;SDS011;4040;42.848;23.034;2022-07-17T07:43:26;3.47;;;2.90;;
7989;SDS011;4040;42.848;23.034;2022-07-17T07:49:16;6.47;;;2.67;;
7989;SDS011;4040;42.848;23.034;2022-07-17T07:55:05;3.13;;;2.20;;
7989;SDS011;4040;42.848;23.034;2022-07-17T08:00:55;4.35;;;2.22;;
7989;SDS011;4040;42.848;23.034;2022-07-17T08:06:45;5.13;;;2.33;;
7989;SDS011;4040;42.848;23.034;2022-07-17T08:12:33;2.63;;;2.30;;
7989;SDS011;4040;42.848;23.034;2022-07-17T08:18:22;2.97;;;2.53;;
7989;SDS011;4040;42.848;23.034;2022-07-17T08:28:35;2.97;;;2.33;;
7989;SDS011;4040;42.848;23.034;2022-07-17T08:34:24;2.63;;;2.15;;
7989;SDS011;4040;42.848;23.034;2022-07-17T08:40:17;4.32;;;2.10;;
7989;SDS011;4040;42.848;23.034;2022-07-17T08:46:10;2.65;;;2.22;;
7989;SDS011;4040;42.848;23.034;2022-07-17T08:51:59;4.35;;;2.70;;
7989;SDS011;4040;42.848;23.034;2022-07-17T08:57:48;2.83;;;2.30;;
7989;SDS011;4040;42.848;23.034;2022-07-17T09:03:40;3.45;;;2.00;;
7989;SDS011;4040;42.848;23.034;2022-07-17T09:09:29;5.07;;;2.25;;
7989;SDS011;4040;42.848;23.034;2022-07-17T09:15:20;2.63;;;1.92;;
7989;SDS011;4040;42.848;23.034;2022-07-17T09:21:15;5.22;;;2.33;;
7989;SDS011;4040;42.848;23.034;2022-07-17T09:31:26;2.30;;;2.10;;
7989;SDS011;4040;42.848;23.034;2022-07-17T09:37:18;2.67;;;2.33;;
7989;SDS011;4040;42.848;23.034;2022-07-17T09:43:06;2.58;;;2.28;;
7989;SDS011;4040;42.848;23.034;2022-07-17T09:48:56;3.55;;;2.05;;
7989;SDS011;4040;42.848;23.034;2022-07-17T09:54:47;5.03;;;2.45;;
7989;SDS011;4040;42.848;23.034;2022-07-17T10:00:37;5.82;;;2.50;;
7989;SDS011;4040;42.848;23.034;2022-07-17T10:06:26;2.70;;;2.50;;
7989;SDS011;4040;42.848;23.034;2022-07-17T10:12:17;3.58;;;2.33;;
7989;SDS011;4040;42.848;23.034;2022-07-17T10:18:07;2.63;;;2.00;;
7989;SDS011;4040;42.848;23.034;2022-07-17T10:24:05;4.05;;;2.55;;
7989;SDS011;4040;42.848;23.034;2022-07-17T10:34:21;2.53;;;2.33;;
7989;SDS011;4040;42.848;23.034;2022-07-17T10:40:25;2.92;;;2.40;;
7989;SDS011;4040;42.848;23.034;2022-07-17T10:46:15;5.10;;;2.60;;
7989;SDS011;4040;42.848;23.034;2022-07-17T10:52:05;4.38;;;2.40;;
7989;SDS011;4040;42.848;23.034;2022-07-17T10:57:54;4.70;;;2.20;;
7989;SDS011;4040;42.848;23.034;2022-07-17T11:03:45;5.65;;;2.40;;
7989;SDS011;4040;42.848;23.034;2022-07-17T11:09:36;3.08;;;2.60;;
7989;SDS011;4040;42.848;23.034;2022-07-17T11:15:37;3.30;;;3.00;;
7989;SDS011;4040;42.848;23.034;2022-07-17T11:21:27;5.05;;;3.10;;
7989;SDS011;4040;42.848;23.034;2022-07-17T11:27:20;6.22;;;2.80;;
7989;SDS011;4040;42.848;23.034;2022-07-17T11:37:32;3.17;;;2.70;;
7989;SDS011;4040;42.848;23.034;2022-07-17T11:43:22;5.60;;;3.92;;
7989;SDS011;4040;42.848;23.034;2022-07-17T11:49:11;3.38;;;2.78;;
7989;SDS011;4040;42.848;23.034;2022-07-17T11:55:12;4.03;;;3.00;;
7989;SDS011;4040;42.848;23.034;2022-07-17T12:01:03;2.45;;;2.25;;
7989;SDS011;4040;42.848;23.034;2022-07-17T12:06:58;2.72;;;2.38;;
7989;SDS011;4040;42.848;23.034;2022-07-17T12:12:51;4.93;;;2.60;;
7989;SDS011;4040;42.848;23.034;2022-07-17T12:18:53;6.90;;;2.65;;
7989;SDS011;4040;42.848;23.034;2022-07-17T12:24:44;7.82;;;2.80;;
7989;SDS011;4040;42.848;23.034;2022-07-17T12:30:34;2.97;;;2.60;;
7989;SDS011;4040;42.848;23.034;2022-07-17T12:40:47;3.03;;;2.50;;
7989;SDS011;4040;42.848;23.034;2022-07-17T12:46:36;8.52;;;3.15;;
7989;SDS011;4040;42.848;23.034;2022-07-17T12:52:25;4.75;;;3.47;;
7989;SDS011;4040;42.848;23.034;2022-07-17T12:58:15;4.85;;;2.60;;
7989;SDS011;4040;42.848;23.034;2022-07-17T13:04:04;3.38;;;2.47;;
7989;SDS011;4040;42.848;23.034;2022-07-17T13:09:53;3.10;;;2.35;;
7989;SDS011;4040;42.848;23.034;2022-07-17T13:15:44;6.13;;;2.70;;
7989;SDS011;4040;42.848;23.034;2022-07-17T13:21:32;7.00;;;3.22;;
7989;SDS011;4040;42.848;23.034;2022-07-17T13:27:22;4.85;;;2.75;;
7989;SDS011;4040;42.848;23.034;2022-07-17T13:33:12;5.65;;;3.10;;
7989;SDS011;4040;42.848;23.034;2022-07-17T13:43:23;6.38;;;3.17;;
7989;SDS011;4040;42.848;23.034;2022-07-17T13:49:13;9.60;;;3.78;;
7989;SDS011;4040;42.848;23.034;2022-07-17T13:55:03;4.60;;;3.20;;
7989;SDS011;4040;42.848;23.034;2022-07-17T14:00:52;5.57;;;3.10;;
7989;SDS011;4040;42.848;23.034;2022-07-17T14:06:42;3.75;;;3.45;;
7989;SDS011;4040;42.848;23.034;2022-07-17T14:12:31;11.20;;;3.80;;
7989;SDS011;4040;42.848;23.034;2022-07-17T14:18:20;8.50;;;3.67;;
7989;SDS011;4040;42.848;23.034;2022-07-17T14:24:10;3.88;;;3.47;;
7989;SDS011;4040;42.848;23.034;2022-07-17T14:29:58;6.53;;;3.50;;
7989;SDS011;4040;42.848;23.034;2022-07-17T14:35:47;12.20;;;3.63;;
7989;SDS011;4040;42.848;23.034;2022-07-17T14:45:59;6.68;;;3.55;;
7989;SDS011;4040;42.848;23.034;2022-07-17T14:51:48;8.75;;;3.30;;
7989;SDS011;4040;42.848;23.034;2022-07-17T14:57:36;13.00;;;3.85;;
7989;SDS011;4040;42.848;23.034;2022-07-17T15:03:26;5.18;;;2.90;;
7989;SDS011;4040;42.848;23.034;2022-07-17T15:09:15;12.82;;;3.63;;
7989;SDS011;4040;42.848;23.034;2022-07-17T15:15:04;2.67;;;2.47;;
7989;SDS011;4040;42.848;23.034;2022-07-17T15:20:54;8.85;;;2.67;;
7989;SDS011;4040;42.848;23.034;2022-07-17T15:26:43;5.93;;;2.60;;
7989;SDS011;4040;42.848;23.034;2022-07-17T15:32:33;2.58;;;2.38;;
7989;SDS011;4040;42.848;23.034;2022-07-17T15:38:23;4.30;;;2.70;;
7989;SDS011;4040;42.848;23.034;2022-07-17T15:48:33;4.90;;;2.25;;
7989;SDS011;4040;42.848;23.034;2022-07-17T15:54:33;7.63;;;2.40;;
7989;SDS011;4040;42.848;23.034;2022-07-17T16:00:22;3.75;;;2.05;;
7989;SDS011;4040;42.848;23.034;2022-07-17T16:06:11;2.70;;;2.00;;
7989;SDS011;4040;42.848;23.034;2022-07-17T16:12:01;2.42;;;2.00;;
7989;SDS011;4040;42.848;23.034;2022-07-17T16:17:50;4.13;;;2.67;;
7989;SDS011;4040;42.848;23.034;2022-07-17T16:23:39;2.47;;;2.28;;
7989;SDS011;4040;42.848;23.034;2022-07-17T16:29:29;3.38;;;2.47;;
7989;SDS011;4040;42.848;23.034;2022-07-17T16:35:17;4.22;;;2.20;;
7989;SDS011;4040;42.848;23.034;2022-07-17T16:41:06;6.05;;;2.28;;
7989;SDS011;4040;42.848;23.034;2022-07-17T16:51:19;2.05;;;1.92;;
7989;SDS011;4040;42.848;23.034;2022-07-17T16:57:08;9.40;;;2.70;;
7989;SDS011;4040;42.848;23.034;2022-07-17T17:02:57;3.45;;;2.45;;
7989;SDS011;4040;42.848;23.034;2022-07-17T17:08:47;3.10;;;2.22;;
7989;SDS011;4040;42.848;23.034;2022-07-17T17:14:35;4.97;;;2.63;;
7989;SDS011;4040;42.848;23.034;2022-07-17T17:20:24;3.58;;;2.70;;
7989;SDS011;4040;42.848;23.034;2022-07-17T17:26:14;3.45;;;2.28;;
7989;SDS011;4040;42.848;23.034;2022-07-17T17:32:04;3.10;;;2.30;;
7989;SDS011;4040;42.848;23.034;2022-07-17T17:37:53;5.45;;;2.63;;
7989;SDS011;4040;42.848;23.034;2022-07-17T17:43:44;2.92;;;2.10;;
7989;SDS011;4040;42.848;23.034;2022-07-17T17:53:55;3.67;;;2.20;;
7989;SDS011;4040;42.848;23.034;2022-07-17T17:59:45;5.45;;;2.28;;
7989;SDS011;4040;42.848;23.034;2022-07-17T18:05:34;3.47;;;2.35;;
7989;SDS011;4040;42.848;23.034;2022-07-17T18:11:23;5.70;;;3.05;;
7989;SDS011;4040;42.848;23.034;2022-07-17T18:17:14;4.43;;;2.88;;
7989;SDS011;4040;42.848;23.034;2022-07-17T18:23:02;3.67;;;2.15;;
7989;SDS011;4040;42.848;23.034;2022-07-17T18:28:51;5.53;;;2.17;;
7989;SDS011;4040;42.848;23.034;2022-07-17T18:34:42;3.03;;;2.33;;
7989;SDS011;4040;42.848;23.034;2022-07-17T18:40:31;3.22;;;2.08;;
7989;SDS011;4040;42.848;23.034;2022-07-17T18:46:21;3.88;;;1.92;;
7989;SDS011;4040;42.848;23.034;2022-07-17T18:56:33;2.28;;;2.08;;
7989;SDS011;4040;42.848;23.034;2022-07-17T19:02:21;2.60;;;2.20;;
7989;SDS011;4040;42.848;23.034;2022-07-17T19:08:11;2.55;;;2.15;;
7989;SDS011;4040;42.848;23.034;2022-07-17T19:14:01;5.30;;;2.28;;
7989;SDS011;4040;42.848;23.034;2022-07-17T19:19:51;5.72;;;2.20;;
7989;SDS011;4040;42.848;23.034;2022-07-17T19:25:40;2.55;;;2.03;;
7989;SDS011;4040;42.848;23.034;2022-07-17T19:31:30;6.40;;;2.15;;
7989;SDS011;4040;42.848;23.034;2022-07-17T19:37:19;3.30;;;2.45;;
7989;SDS011;4040;42.848;23.034;2022-07-17T19:43:08;2.75;;;2.45;;
7989;SDS011;4040;42.848;23.034;2022-07-17T19:48:58;4.97;;;2.30;;
7989;SDS011;4040;42.848;23.034;2022-07-17T19:59:10;4.72;;;2.30;;
7989;SDS011;4040;42.848;23.034;2022-07-17T20:05:01;4.57;;;2.20;;
7989;SDS011;4040;42.848;23.034;2022-07-17T20:10:50;3.40;;;2.42;;
7989;SDS011;4040;42.848;23.034;2022-07-17T20:16:39;4.78;;;2.38;;
7989;SDS011;4040;42.848;23.034;2022-07-17T20:22:29;2.70;;;2.40;;
7989;SDS011;4040;42.848;23.034;2022-07-17T20:28:18;4.72;;;2.17;;
7989;SDS011;4040;42.848;23.034;2022-07-17T20:40:15;5.90;;;1.90;;
7989;SDS011;4040;42.848;23.034;2022-07-17T20:46:03;2.92;;;1.95;;
7989;SDS011;4040;42.848;23.034;2022-07-17T20:51:53;2.90;;;2.58;;
7989;SDS011;4040;42.848;23.034;2022-07-17T21:02:04;2.65;;;2.42;;
7989;SDS011;4040;42.848;23.034;2022-07-17T21:07:53;3.00;;;2.53;;
7989;SDS011;4040;42.848;23.034;2022-07-17T21:13:42;3.20;;;2.40;;
7989;SDS011;4040;42.848;23.034;2022-07-17T21:19:33;3.70;;;2.50;;
7989;SDS011;4040;42.848;23.034;2022-07-17T21:25:21;3.55;;;2.47;;
7989;SDS011;4040;42.848;23.034;2022-07-17T21:31:10;3.53;;;2.75;;
7989;SDS011;4040;42.848;23.034;2022-07-17T21:37:00;3.17;;;2.53;;
7989;SDS011;4040;42.848;23.034;2022-07-17T21:42:49;2.80;;;2.47;;
7989;SDS011;4040;42.848;23.034;2022-07-17T21:48:38;3.97;;;2.10;;
7989;SDS011;4040;42.848;23.034;2022-07-17T21:54:28;5.63;;;2.40;;
7989;SDS011;4040;42.848;23.034;2022-07-17T22:08:27;2.40;;;2.10;;
7989;SDS011;4040;42.848;23.034;2022-07-17T22:14:16;3.33;;;2.20;;
7989;SDS011;4040;42.848;23.034;2022-07-17T22:20:07;4.85;;;2.42;;
7989;SDS011;4040;42.848;23.034;2022-07-17T22:25:58;2.88;;;2.47;;
7989;SDS011;4040;42.848;23.034;2022-07-17T22:31:47;4.70;;;2.70;;
7989;SDS011;4040;42.848;23.034;2022-07-17T22:37:35;2.97;;;2.67;;
7989;SDS011;4040;42.848;23.034;2022-07-17T22:43:26;3.20;;;2.60;;
7989;SDS011;4040;42.848;23.034;2022-07-17T22:49:14;3.22;;;2.60;;
7989;SDS011;4040;42.848;23.034;2022-07-17T22:55:03;2.45;;;2.25;;
7989;SDS011;4040;42.848;23.034;2022-07-17T23:00:54;3.00;;;2.70;;
7989;SDS011;4040;42.848;23.034;2022-07-17T23:03:22;2.90;;;2.47;;
7989;SDS011;4040;42.848;23.034;2022-07-17T23:09:11;4.32;;;2.80;;
7989;SDS011;4040;42.848;23.034;2022-07-17T23:14:59;3.63;;;2.83;;
7989;SDS011;4040;42.848;23.034;2022-07-17T23:20:51;5.22;;;2.28;;
7989;SDS011;4040;42.848;23.034;2022-07-17T23:26:40;5.72;;;2.63;;
7989;SDS011;4040;42.848;23.034;2022-07-17T23:32:29;2.35;;;2.03;;
7989;SDS011;4040;42.848;23.034;2022-07-17T23:38:19;2.53;;;2.33;;
7989;SDS011;4040;42.848;23.034;2022-07-17T23:44:08;3.10;;;2.22;;
7989;SDS011;4040;42.848;23.034;2022-07-17T23:49:56;3.80;;;2.55;;
7989;SDS011;4040;42.848;23.034;2022-07-17T23:55:47;4.63;;;2.60;;
